sensor_id;sensor_type;location;lat;lon;timestamp;P1;durP1;ratioP1;P2;durP2;ratioP2
55112;SDS011;41006;50.920;3.456;2023-08-20T00:00:28;14.02;;;12.63;;
55112;SDS011;41006;50.920;3.456;2023-08-20T00:00:59;14.82;;;13.20;;
55112;SDS011;41006;50.920;3.456;2023-08-20T00:01:32;14.10;;;12.40;;
55112;SDS011;41006;50.920;3.456;2023-08-20T00:02:08;17.08;;;13.30;;
55112;SDS011;41006;50.920;3.456;2023-08-20T00:02:42;17.80;;;12.45;;
55112;SDS011;41006;50.920;3.456;2023-08-20T00:03:17;16.35;;;11.82;;
55112;SDS011;41006;50.920;3.456;2023-08-20T00:03:48;13.60;;;12.25;;
55112;SDS011;41006;50.920;3.456;2023-08-20T00:04:26;14.65;;;12.50;;
55112;SDS011;41006;50.920;3.456;2023-08-20T00:04:58;16.70;;;12.60;;
55112;SDS011;41006;50.920;3.456;2023-08-20T00:05:29;13.80;;;12.38;;
55112;SDS011;41006;50.920;3.456;2023-08-20T00:06:04;13.98;;;11.93;;
55112;SDS011;41006;50.920;3.456;2023-08-20T00:06:35;14.77;;;12.27;;
55112;SDS011;41006;50.920;3.456;2023-08-20T00:07:08;18.67;;;13.65;;
55112;SDS011;41006;50.920;3.456;2023-08-20T00:07:41;14.77;;;13.32;;
55112;SDS011;41006;50.920;3.456;2023-08-20T00:08:11;15.65;;;12.55;;
55112;SDS011;41006;50.920;3.456;2023-08-20T00:08:42;13.27;;;12.02;;
55112;SDS011;41006;50.920;3.456;2023-08-20T00:09:16;12.77;;;11.50;;
55112;SDS011;41006;50.920;3.456;2023-08-20T00:09:47;14.27;;;12.77;;
55112;SDS011;41006;50.920;3.456;2023-08-20T00:10:19;13.57;;;12.30;;
55112;SDS011;41006;50.920;3.456;2023-08-20T00:10:50;13.48;;;12.23;;
55112;SDS011;41006;50.920;3.456;2023-08-20T00:11:25;18.58;;;12.82;;
55112;SDS011;41006;50.920;3.456;2023-08-20T00:11:56;12.77;;;11.60;;
55112;SDS011;41006;50.920;3.456;2023-08-20T00:12:28;19.88;;;12.10;;
55112;SDS011;41006;50.920;3.456;2023-08-20T00:12:59;12.82;;;11.52;;
55112;SDS011;41006;50.920;3.456;2023-08-20T00:13:34;14.48;;;12.27;;
55112;SDS011;41006;50.920;3.456;2023-08-20T00:14:07;15.60;;;12.30;;
55112;SDS011;41006;50.920;3.456;2023-08-20T00:15:28;12.65;;;11.48;;
55112;SDS011;41006;50.920;3.456;2023-08-20T00:15:58;14.63;;;10.82;;
55112;SDS011;41006;50.920;3.456;2023-08-20T00:16:29;13.73;;;10.60;;
55112;SDS011;41006;50.920;3.456;2023-08-20T00:16:59;11.43;;;10.52;;
55112;SDS011;41006;50.920;3.456;2023-08-20T00:17:30;13.52;;;12.07;;
55112;SDS011;41006;50.920;3.456;2023-08-20T00:18:09;14.10;;;12.50;;
55112;SDS011;41006;50.920;3.456;2023-08-20T00:18:42;14.10;;;12.60;;
55112;SDS011;41006;50.920;3.456;2023-08-20T00:19:15;15.73;;;13.70;;
55112;SDS011;41006;50.920;3.456;2023-08-20T00:19:49;14.05;;;11.80;;
55112;SDS011;41006;50.920;3.456;2023-08-20T00:20:22;13.75;;;12.30;;
55112;SDS011;41006;50.920;3.456;2023-08-20T00:20:55;13.32;;;12.02;;
55112;SDS011;41006;50.920;3.456;2023-08-20T00:21:26;13.77;;;12.35;;
55112;SDS011;41006;50.920;3.456;2023-08-20T00:21:59;15.02;;;12.77;;
55112;SDS011;41006;50.920;3.456;2023-08-20T00:22:32;16.88;;;14.07;;
55112;SDS011;41006;50.920;3.456;2023-08-20T00:23:05;14.52;;;13.13;;
55112;SDS011;41006;50.920;3.456;2023-08-20T00:23:36;14.73;;;13.13;;
55112;SDS011;41006;50.920;3.456;2023-08-20T00:24:07;15.57;;;12.73;;
55112;SDS011;41006;50.920;3.456;2023-08-20T00:24:38;15.85;;;13.85;;
55112;SDS011;41006;50.920;3.456;2023-08-20T00:25:12;15.00;;;13.50;;
55112;SDS011;41006;50.920;3.456;2023-08-20T00:25:49;13.75;;;12.32;;
55112;SDS011;41006;50.920;3.456;2023-08-20T00:26:25;11.68;;;10.57;;
55112;SDS011;41006;50.920;3.456;2023-08-20T00:26:55;12.48;;;11.25;;
55112;SDS011;41006;50.920;3.456;2023-08-20T00:27:28;11.65;;;10.38;;
55112;SDS011;41006;50.920;3.456;2023-08-20T00:27:58;13.23;;;11.18;;
55112;SDS011;41006;50.920;3.456;2023-08-20T00:28:33;11.60;;;10.60;;
55112;SDS011;41006;50.920;3.456;2023-08-20T00:29:04;12.23;;;11.07;;
55112;SDS011;41006;50.920;3.456;2023-08-20T00:29:36;14.27;;;11.15;;
55112;SDS011;41006;50.920;3.456;2023-08-20T00:30:09;13.50;;;11.65;;
55112;SDS011;41006;50.920;3.456;2023-08-20T00:30:43;13.55;;;11.20;;
55112;SDS011;41006;50.920;3.456;2023-08-20T00:31:13;17.95;;;11.80;;
55112;SDS011;41006;50.920;3.456;2023-08-20T00:31:44;12.73;;;10.90;;
55112;SDS011;41006;50.920;3.456;2023-08-20T00:32:16;12.07;;;10.48;;
55112;SDS011;41006;50.920;3.456;2023-08-20T00:32:49;15.48;;;11.63;;
55112;SDS011;41006;50.920;3.456;2023-08-20T00:33:20;11.98;;;10.75;;
55112;SDS011;41006;50.920;3.456;2023-08-20T00:33:52;12.63;;;11.40;;
55112;SDS011;41006;50.920;3.456;2023-08-20T00:34:30;12.20;;;10.90;;
55112;SDS011;41006;50.920;3.456;2023-08-20T00:35:02;15.52;;;10.68;;
55112;SDS011;41006;50.920;3.456;2023-08-20T00:35:38;12.30;;;11.10;;
55112;SDS011;41006;50.920;3.456;2023-08-20T00:36:11;12.57;;;10.85;;
55112;SDS011;41006;50.920;3.456;2023-08-20T00:36:41;12.13;;;10.93;;
55112;SDS011;41006;50.920;3.456;2023-08-20T00:37:14;14.75;;;10.73;;
55112;SDS011;41006;50.920;3.456;2023-08-20T00:37:44;14.90;;;11.10;;
55112;SDS011;41006;50.920;3.456;2023-08-20T00:38:17;14.60;;;12.20;;
55112;SDS011;41006;50.920;3.456;2023-08-20T00:38:50;13.75;;;11.82;;
55112;SDS011;41006;50.920;3.456;2023-08-20T00:39:24;11.88;;;10.63;;
55112;SDS011;41006;50.920;3.456;2023-08-20T00:39:56;12.07;;;10.88;;
55112;SDS011;41006;50.920;3.456;2023-08-20T00:40:28;15.07;;;10.77;;
55112;SDS011;41006;50.920;3.456;2023-08-20T00:40:58;12.48;;;11.10;;
55112;SDS011;41006;50.920;3.456;2023-08-20T00:41:30;11.65;;;10.65;;
55112;SDS011;41006;50.920;3.456;2023-08-20T00:42:05;16.60;;;11.65;;
55112;SDS011;41006;50.920;3.456;2023-08-20T00:42:37;13.38;;;10.95;;
55112;SDS011;41006;50.920;3.456;2023-08-20T00:43:09;14.60;;;10.98;;
55112;SDS011;41006;50.920;3.456;2023-08-20T00:43:42;15.68;;;11.70;;
55112;SDS011;41006;50.920;3.456;2023-08-20T00:44:15;16.73;;;11.13;;
55112;SDS011;41006;50.920;3.456;2023-08-20T00:44:48;13.98;;;11.27;;
55112;SDS011;41006;50.920;3.456;2023-08-20T00:45:22;11.82;;;10.70;;
55112;SDS011;41006;50.920;3.456;2023-08-20T00:45:58;11.88;;;10.30;;
55112;SDS011;41006;50.920;3.456;2023-08-20T00:46:31;15.73;;;11.02;;
55112;SDS011;41006;50.920;3.456;2023-08-20T00:47:02;13.88;;;10.25;;
55112;SDS011;41006;50.920;3.456;2023-08-20T00:47:40;11.65;;;10.30;;
55112;SDS011;41006;50.920;3.456;2023-08-20T00:48:13;12.57;;;8.80;;
55112;SDS011;41006;50.920;3.456;2023-08-20T00:48:47;14.57;;;10.82;;
55112;SDS011;41006;50.920;3.456;2023-08-20T00:49:17;14.82;;;11.38;;
55112;SDS011;41006;50.920;3.456;2023-08-20T00:49:48;11.10;;;10.00;;
55112;SDS011;41006;50.920;3.456;2023-08-20T00:50:23;16.02;;;11.23;;
55112;SDS011;41006;50.920;3.456;2023-08-20T00:50:54;13.57;;;10.50;;
55112;SDS011;41006;50.920;3.456;2023-08-20T00:51:24;16.08;;;10.50;;
55112;SDS011;41006;50.920;3.456;2023-08-20T00:51:55;12.93;;;10.30;;
55112;SDS011;41006;50.920;3.456;2023-08-20T00:52:26;12.38;;;10.50;;
55112;SDS011;41006;50.920;3.456;2023-08-20T00:52:59;13.45;;;10.35;;
55112;SDS011;41006;50.920;3.456;2023-08-20T00:53:32;12.98;;;10.40;;
55112;SDS011;41006;50.920;3.456;2023-08-20T00:54:05;11.50;;;9.52;;
55112;SDS011;41006;50.920;3.456;2023-08-20T00:54:36;14.50;;;10.40;;
55112;SDS011;41006;50.920;3.456;2023-08-20T00:55:09;12.70;;;11.52;;
55112;SDS011;41006;50.920;3.456;2023-08-20T00:55:42;16.83;;;11.98;;
55112;SDS011;41006;50.920;3.456;2023-08-20T00:56:13;12.45;;;11.23;;
55112;SDS011;41006;50.920;3.456;2023-08-20T00:56:46;14.10;;;11.35;;
55112;SDS011;41006;50.920;3.456;2023-08-20T00:57:20;12.23;;;11.10;;
55112;SDS011;41006;50.920;3.456;2023-08-20T00:57:52;13.48;;;10.63;;
55112;SDS011;41006;50.920;3.456;2023-08-20T00:58:27;12.48;;;11.07;;
55112;SDS011;41006;50.920;3.456;2023-08-20T00:59:04;12.77;;;10.77;;
55112;SDS011;41006;50.920;3.456;2023-08-20T00:59:37;14.95;;;10.82;;
55112;SDS011;41006;50.920;3.456;2023-08-20T01:00:10;12.38;;;10.95;;
55112;SDS011;41006;50.920;3.456;2023-08-20T01:00:45;12.27;;;11.18;;
55112;SDS011;41006;50.920;3.456;2023-08-20T01:01:16;11.32;;;10.32;;
55112;SDS011;41006;50.920;3.456;2023-08-20T01:01:48;13.80;;;10.55;;
55112;SDS011;41006;50.920;3.456;2023-08-20T01:02:18;12.25;;;10.45;;
55112;SDS011;41006;50.920;3.456;2023-08-20T01:02:49;13.73;;;10.35;;
55112;SDS011;41006;50.920;3.456;2023-08-20T01:03:22;11.13;;;10.00;;
55112;SDS011;41006;50.920;3.456;2023-08-20T01:03:55;11.27;;;10.18;;
55112;SDS011;41006;50.920;3.456;2023-08-20T01:04:28;11.90;;;10.63;;
55112;SDS011;41006;50.920;3.456;2023-08-20T01:05:01;15.80;;;10.18;;
55112;SDS011;41006;50.920;3.456;2023-08-20T01:05:33;12.70;;;11.38;;
55112;SDS011;41006;50.920;3.456;2023-08-20T01:06:19;15.40;;;10.13;;
55112;SDS011;41006;50.920;3.456;2023-08-20T01:08:13;14.18;;;10.20;;
55112;SDS011;41006;50.920;3.456;2023-08-20T01:08:57;12.15;;;10.82;;
55112;SDS011;41006;50.920;3.456;2023-08-20T01:09:49;11.95;;;11.05;;
55112;SDS011;41006;50.920;3.456;2023-08-20T01:11:02;15.93;;;10.75;;
55112;SDS011;41006;50.920;3.456;2023-08-20T01:11:45;13.75;;;10.23;;
55112;SDS011;41006;50.920;3.456;2023-08-20T01:12:23;11.93;;;10.98;;
55112;SDS011;41006;50.920;3.456;2023-08-20T01:12:54;14.68;;;9.77;;
55112;SDS011;41006;50.920;3.456;2023-08-20T01:13:27;13.30;;;11.25;;
55112;SDS011;41006;50.920;3.456;2023-08-20T01:13:58;12.40;;;11.05;;
55112;SDS011;41006;50.920;3.456;2023-08-20T01:14:33;17.23;;;11.30;;
55112;SDS011;41006;50.920;3.456;2023-08-20T01:15:03;12.18;;;11.05;;
55112;SDS011;41006;50.920;3.456;2023-08-20T01:15:38;12.60;;;11.40;;
55112;SDS011;41006;50.920;3.456;2023-08-20T01:16:11;12.52;;;11.40;;
55112;SDS011;41006;50.920;3.456;2023-08-20T01:16:44;12.73;;;11.45;;
55112;SDS011;41006;50.920;3.456;2023-08-20T01:17:16;13.07;;;11.32;;
55112;SDS011;41006;50.920;3.456;2023-08-20T01:17:46;12.55;;;11.38;;
55112;SDS011;41006;50.920;3.456;2023-08-20T01:18:18;11.88;;;10.80;;
55112;SDS011;41006;50.920;3.456;2023-08-20T01:18:51;12.43;;;11.23;;
55112;SDS011;41006;50.920;3.456;2023-08-20T01:19:22;12.68;;;10.85;;
55112;SDS011;41006;50.920;3.456;2023-08-20T01:19:52;13.20;;;11.57;;
55112;SDS011;41006;50.920;3.456;2023-08-20T01:20:30;11.55;;;10.52;;
55112;SDS011;41006;50.920;3.456;2023-08-20T01:21:17;15.13;;;11.07;;
55112;SDS011;41006;50.920;3.456;2023-08-20T01:25:37;13.88;;;10.50;;
55112;SDS011;41006;50.920;3.456;2023-08-20T01:28:32;12.70;;;10.77;;
55112;SDS011;41006;50.920;3.456;2023-08-20T01:29:09;11.20;;;9.23;;
55112;SDS011;41006;50.920;3.456;2023-08-20T01:29:43;11.75;;;8.88;;
55112;SDS011;41006;50.920;3.456;2023-08-20T01:30:14;11.02;;;9.38;;
55112;SDS011;41006;50.920;3.456;2023-08-20T01:30:45;12.70;;;9.73;;
55112;SDS011;41006;50.920;3.456;2023-08-20T01:31:16;10.65;;;9.75;;
55112;SDS011;41006;50.920;3.456;2023-08-20T01:31:49;12.10;;;10.35;;
55112;SDS011;41006;50.920;3.456;2023-08-20T01:32:23;11.55;;;10.35;;
55112;SDS011;41006;50.920;3.456;2023-08-20T01:32:56;10.50;;;9.50;;
55112;SDS011;41006;50.920;3.456;2023-08-20T01:33:32;10.63;;;9.35;;
55112;SDS011;41006;50.920;3.456;2023-08-20T01:34:06;10.45;;;9.00;;
55112;SDS011;41006;50.920;3.456;2023-08-20T01:34:36;14.48;;;10.15;;
55112;SDS011;41006;50.920;3.456;2023-08-20T01:35:08;13.43;;;10.43;;
55112;SDS011;41006;50.920;3.456;2023-08-20T01:35:46;14.90;;;10.48;;
55112;SDS011;41006;50.920;3.456;2023-08-20T01:36:18;11.85;;;10.65;;
55112;SDS011;41006;50.920;3.456;2023-08-20T01:36:49;13.60;;;11.10;;
55112;SDS011;41006;50.920;3.456;2023-08-20T01:37:21;11.18;;;10.20;;
55112;SDS011;41006;50.920;3.456;2023-08-20T01:37:54;11.50;;;10.35;;
55112;SDS011;41006;50.920;3.456;2023-08-20T01:38:24;11.20;;;9.98;;
55112;SDS011;41006;50.920;3.456;2023-08-20T01:38:57;16.10;;;11.25;;
55112;SDS011;41006;50.920;3.456;2023-08-20T01:39:27;13.07;;;11.10;;
55112;SDS011;41006;50.920;3.456;2023-08-20T01:40:00;16.33;;;11.38;;
55112;SDS011;41006;50.920;3.456;2023-08-20T01:40:33;11.30;;;10.40;;
55112;SDS011;41006;50.920;3.456;2023-08-20T01:41:06;13.98;;;11.68;;
55112;SDS011;41006;50.920;3.456;2023-08-20T01:41:41;11.77;;;10.63;;
55112;SDS011;41006;50.920;3.456;2023-08-20T01:42:14;12.98;;;11.40;;
55112;SDS011;41006;50.920;3.456;2023-08-20T01:42:48;12.10;;;11.20;;
55112;SDS011;41006;50.920;3.456;2023-08-20T01:43:18;11.57;;;10.50;;
55112;SDS011;41006;50.920;3.456;2023-08-20T01:43:51;12.05;;;10.95;;
55112;SDS011;41006;50.920;3.456;2023-08-20T01:44:22;12.27;;;10.88;;
55112;SDS011;41006;50.920;3.456;2023-08-20T01:44:52;14.52;;;11.23;;
55112;SDS011;41006;50.920;3.456;2023-08-20T01:45:27;12.45;;;10.68;;
55112;SDS011;41006;50.920;3.456;2023-08-20T01:45:57;11.60;;;10.70;;
55112;SDS011;41006;50.920;3.456;2023-08-20T01:46:30;11.70;;;10.65;;
55112;SDS011;41006;50.920;3.456;2023-08-20T01:47:03;12.40;;;11.23;;
55112;SDS011;41006;50.920;3.456;2023-08-20T01:47:33;12.32;;;11.23;;
55112;SDS011;41006;50.920;3.456;2023-08-20T01:48:04;12.20;;;11.10;;
55112;SDS011;41006;50.920;3.456;2023-08-20T01:48:36;12.40;;;11.40;;
55112;SDS011;41006;50.920;3.456;2023-08-20T01:49:07;13.43;;;12.05;;
55112;SDS011;41006;50.920;3.456;2023-08-20T01:49:37;12.43;;;11.32;;
55112;SDS011;41006;50.920;3.456;2023-08-20T01:50:08;13.07;;;11.50;;
55112;SDS011;41006;50.920;3.456;2023-08-20T01:50:41;15.10;;;11.65;;
55112;SDS011;41006;50.920;3.456;2023-08-20T01:51:16;12.85;;;11.88;;
55112;SDS011;41006;50.920;3.456;2023-08-20T01:51:52;13.43;;;12.10;;
55112;SDS011;41006;50.920;3.456;2023-08-20T01:52:24;13.32;;;12.07;;
55112;SDS011;41006;50.920;3.456;2023-08-20T01:53:00;13.40;;;12.20;;
55112;SDS011;41006;50.920;3.456;2023-08-20T01:53:30;13.40;;;12.00;;
55112;SDS011;41006;50.920;3.456;2023-08-20T01:54:00;14.45;;;12.50;;
55112;SDS011;41006;50.920;3.456;2023-08-20T01:54:31;13.75;;;12.68;;
55112;SDS011;41006;50.920;3.456;2023-08-20T01:55:03;14.23;;;12.90;;
55112;SDS011;41006;50.920;3.456;2023-08-20T01:55:37;13.18;;;12.13;;
55112;SDS011;41006;50.920;3.456;2023-08-20T01:56:13;13.68;;;12.68;;
55112;SDS011;41006;50.920;3.456;2023-08-20T01:56:46;14.55;;;13.25;;
55112;SDS011;41006;50.920;3.456;2023-08-20T01:57:16;13.98;;;12.73;;
55112;SDS011;41006;50.920;3.456;2023-08-20T01:57:49;14.45;;;13.23;;
55112;SDS011;41006;50.920;3.456;2023-08-20T01:58:21;14.45;;;13.20;;
55112;SDS011;41006;50.920;3.456;2023-08-20T01:58:57;13.38;;;12.57;;
55112;SDS011;41006;50.920;3.456;2023-08-20T01:59:29;14.73;;;13.73;;
55112;SDS011;41006;50.920;3.456;2023-08-20T02:00:02;15.27;;;13.80;;
55112;SDS011;41006;50.920;3.456;2023-08-20T02:00:39;14.25;;;13.25;;
55112;SDS011;41006;50.920;3.456;2023-08-20T02:01:09;15.55;;;14.35;;
55112;SDS011;41006;50.920;3.456;2023-08-20T02:01:44;15.48;;;14.02;;
55112;SDS011;41006;50.920;3.456;2023-08-20T02:02:15;15.38;;;14.35;;
55112;SDS011;41006;50.920;3.456;2023-08-20T02:02:48;15.55;;;14.43;;
55112;SDS011;41006;50.920;3.456;2023-08-20T02:03:20;15.30;;;13.88;;
55112;SDS011;41006;50.920;3.456;2023-08-20T02:03:53;16.30;;;14.88;;
55112;SDS011;41006;50.920;3.456;2023-08-20T02:04:23;15.70;;;14.15;;
55112;SDS011;41006;50.920;3.456;2023-08-20T02:04:54;14.60;;;13.30;;
55112;SDS011;41006;50.920;3.456;2023-08-20T02:05:24;14.07;;;12.98;;
55112;SDS011;41006;50.920;3.456;2023-08-20T02:05:55;13.07;;;11.77;;
55112;SDS011;41006;50.920;3.456;2023-08-20T02:06:28;12.13;;;11.00;;
55112;SDS011;41006;50.920;3.456;2023-08-20T02:06:58;11.73;;;10.50;;
55112;SDS011;41006;50.920;3.456;2023-08-20T02:07:29;12.52;;;11.27;;
55112;SDS011;41006;50.920;3.456;2023-08-20T02:07:59;13.60;;;12.30;;
55112;SDS011;41006;50.920;3.456;2023-08-20T02:08:32;12.90;;;11.70;;
55112;SDS011;41006;50.920;3.456;2023-08-20T02:09:02;12.02;;;11.02;;
55112;SDS011;41006;50.920;3.456;2023-08-20T02:09:35;13.48;;;12.18;;
55112;SDS011;41006;50.920;3.456;2023-08-20T02:10:10;12.43;;;11.40;;
55112;SDS011;41006;50.920;3.456;2023-08-20T02:10:41;12.85;;;11.75;;
55112;SDS011;41006;50.920;3.456;2023-08-20T02:11:11;12.52;;;11.60;;
55112;SDS011;41006;50.920;3.456;2023-08-20T02:11:42;12.57;;;11.88;;
55112;SDS011;41006;50.920;3.456;2023-08-20T02:12:12;13.38;;;12.27;;
55112;SDS011;41006;50.920;3.456;2023-08-20T02:12:43;13.48;;;12.15;;
55112;SDS011;41006;50.920;3.456;2023-08-20T02:13:13;13.40;;;12.20;;
55112;SDS011;41006;50.920;3.456;2023-08-20T02:13:46;13.77;;;12.32;;
55112;SDS011;41006;50.920;3.456;2023-08-20T02:14:16;13.38;;;11.98;;
55112;SDS011;41006;50.920;3.456;2023-08-20T02:14:47;12.95;;;11.95;;
55112;SDS011;41006;50.920;3.456;2023-08-20T02:15:17;13.48;;;12.27;;
55112;SDS011;41006;50.920;3.456;2023-08-20T02:15:56;13.98;;;12.98;;
55112;SDS011;41006;50.920;3.456;2023-08-20T02:16:27;13.77;;;12.70;;
55112;SDS011;41006;50.920;3.456;2023-08-20T02:16:58;12.55;;;11.65;;
55112;SDS011;41006;50.920;3.456;2023-08-20T02:17:35;13.75;;;12.45;;
55112;SDS011;41006;50.920;3.456;2023-08-20T02:18:08;14.13;;;12.57;;
55112;SDS011;41006;50.920;3.456;2023-08-20T02:18:41;13.65;;;12.50;;
55112;SDS011;41006;50.920;3.456;2023-08-20T02:19:11;14.63;;;13.48;;
55112;SDS011;41006;50.920;3.456;2023-08-20T02:19:42;14.30;;;13.20;;
55112;SDS011;41006;50.920;3.456;2023-08-20T02:20:12;13.95;;;12.70;;
55112;SDS011;41006;50.920;3.456;2023-08-20T02:20:45;13.70;;;12.40;;
55112;SDS011;41006;50.920;3.456;2023-08-20T02:21:18;14.50;;;13.35;;
55112;SDS011;41006;50.920;3.456;2023-08-20T02:21:48;14.15;;;13.05;;
55112;SDS011;41006;50.920;3.456;2023-08-20T02:22:18;14.73;;;13.32;;
55112;SDS011;41006;50.920;3.456;2023-08-20T02:22:51;13.13;;;11.90;;
55112;SDS011;41006;50.920;3.456;2023-08-20T02:23:22;13.95;;;12.95;;
55112;SDS011;41006;50.920;3.456;2023-08-20T02:23:52;13.95;;;12.68;;
55112;SDS011;41006;50.920;3.456;2023-08-20T02:24:28;14.95;;;11.73;;
55112;SDS011;41006;50.920;3.456;2023-08-20T02:25:00;12.18;;;11.13;;
55112;SDS011;41006;50.920;3.456;2023-08-20T02:25:31;12.65;;;11.48;;
55112;SDS011;41006;50.920;3.456;2023-08-20T02:26:04;12.38;;;11.13;;
55112;SDS011;41006;50.920;3.456;2023-08-20T02:26:37;11.13;;;10.13;;
55112;SDS011;41006;50.920;3.456;2023-08-20T02:27:07;12.38;;;11.18;;
55112;SDS011;41006;50.920;3.456;2023-08-20T02:27:40;12.82;;;11.70;;
55112;SDS011;41006;50.920;3.456;2023-08-20T02:28:10;11.93;;;10.75;;
55112;SDS011;41006;50.920;3.456;2023-08-20T02:28:40;12.32;;;11.00;;
55112;SDS011;41006;50.920;3.456;2023-08-20T02:29:13;11.57;;;10.63;;
55112;SDS011;41006;50.920;3.456;2023-08-20T02:29:46;14.10;;;11.70;;
55112;SDS011;41006;50.920;3.456;2023-08-20T02:30:19;11.65;;;10.65;;
55112;SDS011;41006;50.920;3.456;2023-08-20T02:30:52;11.43;;;10.45;;
55112;SDS011;41006;50.920;3.456;2023-08-20T02:31:22;11.98;;;11.00;;
55112;SDS011;41006;50.920;3.456;2023-08-20T02:31:58;11.60;;;10.52;;
55112;SDS011;41006;50.920;3.456;2023-08-20T02:32:28;10.82;;;10.00;;
55112;SDS011;41006;50.920;3.456;2023-08-20T02:33:01;16.60;;;11.07;;
55112;SDS011;41006;50.920;3.456;2023-08-20T02:33:32;11.88;;;10.88;;
55112;SDS011;41006;50.920;3.456;2023-08-20T02:34:06;12.15;;;11.15;;
55112;SDS011;41006;50.920;3.456;2023-08-20T02:34:36;11.93;;;11.13;;
55112;SDS011;41006;50.920;3.456;2023-08-20T02:35:09;12.60;;;11.75;;
55112;SDS011;41006;50.920;3.456;2023-08-20T02:35:43;12.68;;;11.68;;
55112;SDS011;41006;50.920;3.456;2023-08-20T02:36:17;13.02;;;11.77;;
55112;SDS011;41006;50.920;3.456;2023-08-20T02:36:50;13.82;;;12.50;;
55112;SDS011;41006;50.920;3.456;2023-08-20T02:37:20;13.68;;;12.60;;
55112;SDS011;41006;50.920;3.456;2023-08-20T02:37:51;13.73;;;12.50;;
55112;SDS011;41006;50.920;3.456;2023-08-20T02:38:21;14.73;;;12.88;;
55112;SDS011;41006;50.920;3.456;2023-08-20T02:38:54;12.43;;;11.35;;
55112;SDS011;41006;50.920;3.456;2023-08-20T02:39:24;12.35;;;11.05;;
55112;SDS011;41006;50.920;3.456;2023-08-20T02:39:55;11.48;;;10.57;;
55112;SDS011;41006;50.920;3.456;2023-08-20T02:40:27;13.30;;;12.13;;
55112;SDS011;41006;50.920;3.456;2023-08-20T02:40:58;12.65;;;11.38;;
55112;SDS011;41006;50.920;3.456;2023-08-20T02:41:28;13.40;;;11.07;;
55112;SDS011;41006;50.920;3.456;2023-08-20T02:42:05;12.15;;;10.63;;
55112;SDS011;41006;50.920;3.456;2023-08-20T02:42:37;14.23;;;10.40;;
55112;SDS011;41006;50.920;3.456;2023-08-20T02:43:13;13.73;;;12.40;;
55112;SDS011;41006;50.920;3.456;2023-08-20T02:43:46;13.20;;;11.93;;
55112;SDS011;41006;50.920;3.456;2023-08-20T02:44:21;11.95;;;10.98;;
55112;SDS011;41006;50.920;3.456;2023-08-20T02:44:54;13.52;;;12.23;;
55112;SDS011;41006;50.920;3.456;2023-08-20T02:45:24;12.35;;;11.32;;
55112;SDS011;41006;50.920;3.456;2023-08-20T02:45:59;11.95;;;11.02;;
55112;SDS011;41006;50.920;3.456;2023-08-20T02:46:34;12.85;;;11.63;;
55112;SDS011;41006;50.920;3.456;2023-08-20T02:47:08;12.77;;;11.65;;
55112;SDS011;41006;50.920;3.456;2023-08-20T02:47:38;13.95;;;12.93;;
55112;SDS011;41006;50.920;3.456;2023-08-20T02:48:13;14.50;;;12.52;;
55112;SDS011;41006;50.920;3.456;2023-08-20T02:48:46;13.57;;;12.23;;
55112;SDS011;41006;50.920;3.456;2023-08-20T02:49:16;13.18;;;12.30;;
55112;SDS011;41006;50.920;3.456;2023-08-20T02:49:51;12.57;;;11.57;;
55112;SDS011;41006;50.920;3.456;2023-08-20T02:50:21;14.95;;;11.88;;
55112;SDS011;41006;50.920;3.456;2023-08-20T02:50:54;13.15;;;12.23;;
55112;SDS011;41006;50.920;3.456;2023-08-20T02:51:27;13.07;;;11.95;;
55112;SDS011;41006;50.920;3.456;2023-08-20T02:52:02;12.55;;;11.57;;
55112;SDS011;41006;50.920;3.456;2023-08-20T02:52:35;13.15;;;12.00;;
55112;SDS011;41006;50.920;3.456;2023-08-20T02:53:06;12.85;;;11.63;;
55112;SDS011;41006;50.920;3.456;2023-08-20T02:53:39;12.25;;;11.20;;
55112;SDS011;41006;50.920;3.456;2023-08-20T02:54:11;12.65;;;11.48;;
55112;SDS011;41006;50.920;3.456;2023-08-20T02:54:42;11.68;;;10.60;;
55112;SDS011;41006;50.920;3.456;2023-08-20T02:55:14;11.80;;;10.77;;
55112;SDS011;41006;50.920;3.456;2023-08-20T02:55:45;11.77;;;10.85;;
55112;SDS011;41006;50.920;3.456;2023-08-20T02:56:18;12.65;;;11.38;;
55112;SDS011;41006;50.920;3.456;2023-08-20T02:56:48;12.23;;;11.00;;
55112;SDS011;41006;50.920;3.456;2023-08-20T02:57:21;11.48;;;10.68;;
55112;SDS011;41006;50.920;3.456;2023-08-20T02:57:56;14.10;;;10.60;;
55112;SDS011;41006;50.920;3.456;2023-08-20T02:58:30;12.95;;;11.75;;
55112;SDS011;41006;50.920;3.456;2023-08-20T02:59:03;11.27;;;10.43;;
55112;SDS011;41006;50.920;3.456;2023-08-20T02:59:41;12.02;;;10.80;;
55112;SDS011;41006;50.920;3.456;2023-08-20T03:00:11;12.00;;;10.82;;
55112;SDS011;41006;50.920;3.456;2023-08-20T03:00:46;12.43;;;11.35;;
55112;SDS011;41006;50.920;3.456;2023-08-20T03:01:23;12.27;;;11.05;;
55112;SDS011;41006;50.920;3.456;2023-08-20T03:01:58;11.75;;;10.75;;
55112;SDS011;41006;50.920;3.456;2023-08-20T03:02:29;14.00;;;10.57;;
55112;SDS011;41006;50.920;3.456;2023-08-20T03:02:59;11.65;;;10.48;;
55112;SDS011;41006;50.920;3.456;2023-08-20T03:03:33;11.55;;;10.55;;
55112;SDS011;41006;50.920;3.456;2023-08-20T03:04:08;11.50;;;10.20;;
55112;SDS011;41006;50.920;3.456;2023-08-20T03:04:43;12.75;;;10.50;;
55112;SDS011;41006;50.920;3.456;2023-08-20T03:05:15;12.40;;;10.82;;
55112;SDS011;41006;50.920;3.456;2023-08-20T03:05:46;11.88;;;10.88;;
55112;SDS011;41006;50.920;3.456;2023-08-20T03:06:18;13.40;;;12.25;;
55112;SDS011;41006;50.920;3.456;2023-08-20T03:06:51;13.90;;;11.48;;
55112;SDS011;41006;50.920;3.456;2023-08-20T03:07:24;13.07;;;11.98;;
55112;SDS011;41006;50.920;3.456;2023-08-20T03:07:59;13.00;;;11.93;;
55112;SDS011;41006;50.920;3.456;2023-08-20T03:08:33;12.57;;;11.40;;
55112;SDS011;41006;50.920;3.456;2023-08-20T03:09:04;12.88;;;11.68;;
55112;SDS011;41006;50.920;3.456;2023-08-20T03:09:38;11.80;;;10.88;;
55112;SDS011;41006;50.920;3.456;2023-08-20T03:10:13;12.45;;;11.20;;
55112;SDS011;41006;50.920;3.456;2023-08-20T03:10:47;14.18;;;12.15;;
55112;SDS011;41006;50.920;3.456;2023-08-20T03:11:20;11.52;;;10.52;;
55112;SDS011;41006;50.920;3.456;2023-08-20T03:11:53;12.45;;;11.45;;
55112;SDS011;41006;50.920;3.456;2023-08-20T03:12:24;11.77;;;10.77;;
55112;SDS011;41006;50.920;3.456;2023-08-20T03:12:56;12.00;;;10.77;;
55112;SDS011;41006;50.920;3.456;2023-08-20T03:13:26;13.00;;;11.68;;
55112;SDS011;41006;50.920;3.456;2023-08-20T03:13:59;13.63;;;11.07;;
55112;SDS011;41006;50.920;3.456;2023-08-20T03:14:30;11.98;;;10.75;;
55112;SDS011;41006;50.920;3.456;2023-08-20T03:15:00;14.35;;;10.75;;
55112;SDS011;41006;50.920;3.456;2023-08-20T03:15:36;11.32;;;9.93;;
55112;SDS011;41006;50.920;3.456;2023-08-20T03:16:08;10.68;;;9.63;;
55112;SDS011;41006;50.920;3.456;2023-08-20T03:16:39;10.40;;;8.18;;
55112;SDS011;41006;50.920;3.456;2023-08-20T03:17:12;10.07;;;7.80;;
55112;SDS011;41006;50.920;3.456;2023-08-20T03:17:42;11.93;;;8.43;;
55112;SDS011;41006;50.920;3.456;2023-08-20T03:18:12;9.25;;;8.45;;
55112;SDS011;41006;50.920;3.456;2023-08-20T03:18:43;11.25;;;9.55;;
55112;SDS011;41006;50.920;3.456;2023-08-20T03:19:14;11.65;;;10.52;;
55112;SDS011;41006;50.920;3.456;2023-08-20T03:19:57;11.65;;;10.45;;
55112;SDS011;41006;50.920;3.456;2023-08-20T03:20:28;10.05;;;9.23;;
55112;SDS011;41006;50.920;3.456;2023-08-20T03:21:01;12.10;;;10.05;;